createdAt,value
2024-04-30T00:01:15.058Z,16.08
2024-04-30T00:03:43.093Z,16.08
2024-04-30T00:06:13.762Z,16.08
2024-04-30T00:08:41.419Z,16.09
2024-04-30T00:11:11.548Z,16.09
2024-04-30T00:13:42.414Z,16.10
2024-04-30T00:16:12.643Z,16.10
2024-04-30T00:18:40.305Z,16.11
2024-04-30T00:21:11.131Z,16.12
2024-04-30T00:23:38.688Z,16.14
2024-04-30T00:26:13.838Z,16.16
2024-04-30T00:28:44.848Z,16.16
2024-04-30T00:31:15.241Z,16.17
2024-04-30T00:33:42.933Z,16.18
2024-04-30T00:36:13.108Z,16.18
2024-04-30T00:38:40.824Z,16.18
2024-04-30T00:41:11.474Z,16.19
2024-04-30T00:43:38.912Z,16.19
2024-04-30T00:46:12.545Z,16.20
2024-04-30T00:48:41.327Z,16.20
2024-04-30T00:51:12.507Z,16.22
2024-04-30T00:53:42.485Z,16.23
2024-04-30T00:56:13.298Z,16.23
2024-04-30T00:58:41.130Z,16.23
2024-04-30T01:01:14.141Z,16.25
2024-04-30T01:03:41.884Z,16.25
2024-04-30T01:06:12.524Z,16.27
2024-04-30T01:08:39.946Z,16.27
2024-04-30T01:11:10.062Z,16.30
2024-04-30T01:13:37.934Z,16.31
2024-04-30T01:16:10.259Z,16.33
2024-04-30T01:18:41.217Z,16.34
2024-04-30T01:21:11.384Z,16.34
2024-04-30T01:23:41.532Z,16.35
2024-04-30T01:26:12.295Z,16.36
2024-04-30T01:28:40.289Z,16.34
2024-04-30T01:31:11.998Z,16.35
2024-04-30T01:33:39.558Z,16.33
2024-04-30T01:36:10.102Z,16.33
2024-04-30T01:38:37.591Z,16.32
2024-04-30T01:41:10.706Z,16.30
2024-04-30T01:43:38.785Z,16.28
2024-04-30T01:46:09.722Z,16.26
2024-04-30T01:48:37.170Z,16.25
2024-04-30T01:51:08.042Z,16.25
2024-04-30T01:53:35.750Z,16.25
2024-04-30T01:56:05.970Z,16.27
2024-04-30T01:58:36.801Z,16.27
2024-04-30T02:01:07.457Z,16.27
2024-04-30T02:03:35.084Z,16.25
2024-04-30T02:06:05.276Z,16.23
2024-04-30T02:08:32.709Z,16.21
2024-04-30T02:11:03.156Z,16.20
2024-04-30T02:13:31.029Z,16.18
2024-04-30T02:16:04.059Z,16.17
2024-04-30T02:18:31.791Z,16.17
2024-04-30T02:21:02.286Z,16.15
2024-04-30T02:23:30.538Z,16.15
2024-04-30T02:26:03.057Z,16.14
2024-04-30T02:28:31.372Z,16.12
2024-04-30T02:31:19.977Z,16.12
2024-04-30T02:34:02.820Z,16.10
2024-04-30T02:36:33.821Z,16.08
2024-04-30T02:39:07.092Z,16.07
2024-04-30T02:41:37.379Z,16.08
2024-04-30T02:44:07.801Z,16.08
2024-04-30T02:46:37.976Z,16.07
2024-04-30T02:49:08.133Z,16.04
2024-04-30T02:51:35.652Z,16.01
2024-04-30T02:54:05.814Z,15.97
2024-04-30T02:56:33.367Z,15.96
2024-04-30T02:59:03.694Z,15.94
2024-04-30T03:01:31.404Z,15.93
2024-04-30T03:04:04.780Z,15.93
2024-04-30T03:06:32.374Z,15.93
2024-04-30T03:09:02.648Z,15.92
2024-04-30T03:11:30.244Z,15.91
2024-04-30T03:14:00.454Z,15.92
2024-04-30T03:16:28.320Z,15.92
2024-04-30T03:18:58.499Z,15.95
2024-04-30T03:21:29.933Z,15.93
2024-04-30T03:24:00.075Z,15.95
2024-04-30T03:26:27.596Z,15.95
2024-04-30T03:28:58.120Z,15.96
2024-04-30T03:31:25.695Z,15.95
2024-04-30T03:33:55.895Z,15.95
2024-04-30T03:36:23.437Z,15.95
2024-04-30T03:38:56.328Z,15.96
2024-04-30T03:41:26.973Z,15.96
2024-04-30T03:43:57.821Z,15.98
2024-04-30T03:46:28.700Z,15.98
2024-04-30T03:48:59.239Z,16.00
2024-04-30T03:51:26.940Z,15.99
2024-04-30T03:53:59.869Z,16.00
2024-04-30T03:56:29.959Z,15.99
2024-04-30T03:58:57.450Z,15.99
2024-04-30T04:01:27.756Z,15.98
2024-04-30T04:03:56.129Z,15.96
2024-04-30T04:06:26.416Z,15.93
2024-04-30T04:08:59.162Z,15.94
2024-04-30T04:11:45.087Z,15.93
2024-04-30T04:14:48.232Z,15.91
2024-04-30T04:17:19.734Z,15.89
2024-04-30T04:19:50.597Z,15.88
2024-04-30T04:22:21.156Z,15.88
2024-04-30T04:24:56.546Z,15.88
2024-04-30T04:27:24.537Z,15.88
2024-04-30T04:29:54.892Z,15.86
2024-04-30T04:32:25.885Z,15.87
2024-04-30T04:34:54.682Z,15.86
2024-04-30T04:37:27.343Z,15.86
2024-04-30T04:40:01.002Z,15.86
2024-04-30T04:42:31.202Z,15.87
2024-04-30T04:44:58.787Z,15.89
2024-04-30T04:47:29.246Z,15.89
2024-04-30T04:49:56.883Z,15.89
2024-04-30T04:52:27.810Z,15.90
2024-04-30T04:54:55.512Z,15.92
2024-04-30T04:57:29.672Z,15.95
2024-04-30T04:59:57.992Z,16.00
2024-04-30T05:02:28.810Z,16.04
2024-04-30T05:04:56.630Z,16.12
2024-04-30T05:07:27.817Z,16.19
2024-04-30T05:09:55.646Z,16.25
2024-04-30T05:12:28.560Z,16.30
2024-04-30T05:14:56.454Z,16.35
2024-04-30T05:17:26.736Z,16.38
2024-04-30T05:19:54.933Z,16.42
2024-04-30T05:22:25.134Z,16.43
2024-04-30T05:24:52.667Z,16.43
2024-04-30T05:27:23.184Z,16.45
2024-04-30T05:29:55.513Z,16.50
2024-04-30T05:32:30.196Z,16.57
2024-04-30T05:35:00.565Z,16.63
2024-04-30T05:37:31.064Z,16.70
2024-04-30T05:39:58.744Z,16.76
2024-04-30T05:42:28.797Z,16.83
2024-04-30T05:44:58.962Z,16.90
2024-04-30T05:47:30.368Z,16.94
2024-04-30T05:49:58.210Z,16.99
2024-04-30T05:52:28.596Z,17.00
2024-04-30T05:54:56.346Z,17.04
2024-04-30T05:57:26.484Z,17.08
2024-04-30T05:59:54.482Z,17.12
2024-04-30T06:02:27.763Z,17.15
2024-04-30T06:04:55.654Z,17.18
2024-04-30T06:07:26.850Z,17.20
2024-04-30T06:09:54.728Z,17.24
2024-04-30T06:12:25.047Z,17.29
2024-04-30T06:14:52.506Z,17.35
2024-04-30T06:17:23.110Z,17.40
2024-04-30T06:19:53.510Z,17.46
2024-04-30T06:22:23.878Z,17.51
2024-04-30T06:24:51.863Z,17.54
2024-04-30T06:27:22.090Z,17.57
2024-04-30T06:29:49.604Z,17.64
2024-04-30T06:32:19.957Z,17.74
2024-04-30T06:34:47.562Z,17.83
2024-04-30T06:37:21.156Z,17.92
2024-04-30T06:39:48.708Z,17.98
2024-04-30T06:42:21.839Z,18.03
2024-04-30T06:44:49.452Z,18.10
2024-04-30T06:47:19.603Z,18.20
2024-04-30T06:49:47.441Z,18.32
2024-04-30T06:52:20.890Z,18.47
2024-04-30T06:54:48.438Z,18.60
2024-04-30T06:57:18.521Z,18.78
2024-04-30T06:59:46.011Z,18.94
2024-04-30T07:02:17.708Z,19.06
2024-04-30T07:04:45.214Z,19.18
2024-04-30T07:07:16.154Z,19.39
2024-04-30T07:09:46.267Z,19.66
2024-04-30T07:12:16.394Z,19.90
2024-04-30T07:14:45.984Z,20.04
2024-04-30T07:17:16.722Z,20.16
2024-04-30T07:19:44.388Z,20.23
2024-04-30T07:22:16.056Z,20.25
2024-04-30T07:24:46.525Z,20.32
2024-04-30T07:27:16.707Z,20.33
2024-04-30T07:29:44.383Z,20.32
2024-04-30T07:32:14.646Z,20.32
2024-04-30T07:34:42.767Z,20.34
2024-04-30T07:37:13.606Z,20.41
2024-04-30T07:39:41.459Z,20.50
2024-04-30T07:42:14.631Z,20.61
2024-04-30T07:44:42.477Z,20.65
2024-04-30T07:47:12.928Z,20.69
2024-04-30T07:49:40.604Z,20.75
2024-04-30T07:52:11.519Z,20.82
2024-04-30T07:54:39.160Z,20.87
2024-04-30T07:57:09.712Z,20.98
2024-04-30T07:59:40.063Z,21.02
2024-04-30T08:02:14.646Z,21.00
2024-04-30T08:04:42.801Z,20.99
2024-04-30T08:07:13.013Z,21.02
2024-04-30T08:09:40.513Z,21.00
2024-04-30T08:12:11.513Z,21.02
2024-04-30T08:14:41.688Z,21.10
2024-04-30T08:17:12.611Z,21.18
2024-04-30T08:19:40.186Z,21.27
2024-04-30T08:22:10.384Z,21.40
2024-04-30T08:24:37.953Z,21.52
2024-04-30T08:27:08.206Z,21.52
2024-04-30T08:29:35.908Z,21.55
2024-04-30T08:32:10.143Z,21.61
2024-04-30T08:34:37.643Z,21.60
2024-04-30T08:37:08.135Z,21.59
2024-04-30T08:39:35.631Z,21.58
2024-04-30T08:42:06.912Z,21.54
2024-04-30T08:44:37.216Z,21.45
2024-04-30T08:47:13.020Z,21.34
2024-04-30T08:49:46.982Z,21.32
2024-04-30T08:52:21.822Z,21.23
2024-04-30T08:54:51.939Z,21.19
2024-04-30T08:57:22.360Z,21.19
2024-04-30T08:59:49.826Z,21.20
2024-04-30T09:02:23.652Z,21.24
2024-04-30T09:04:52.357Z,21.29
2024-04-30T09:07:22.786Z,21.31
2024-04-30T09:09:57.729Z,21.29
2024-04-30T09:12:28.672Z,21.25
2024-04-30T09:14:57.089Z,21.23
2024-04-30T09:17:31.713Z,21.21
2024-04-30T09:20:06.496Z,21.25
2024-04-30T09:22:36.760Z,21.31
2024-04-30T09:25:04.824Z,21.47
2024-04-30T09:27:35.615Z,21.62
2024-04-30T09:30:04.342Z,21.74
2024-04-30T09:32:37.177Z,21.89
2024-04-30T09:35:05.564Z,22.06
2024-04-30T09:37:39.210Z,22.24
2024-04-30T09:40:08.155Z,22.47
2024-04-30T09:42:41.107Z,22.75
2024-04-30T09:45:12.911Z,23.00
2024-04-30T09:47:44.271Z,23.23
2024-04-30T09:50:16.432Z,23.35
2024-04-30T09:52:45.933Z,23.40
2024-04-30T09:55:17.655Z,23.43
2024-04-30T09:57:49.409Z,23.42
2024-04-30T10:00:25.055Z,23.38
2024-04-30T10:03:04.532Z,23.37
2024-04-30T10:05:36.177Z,23.40
2024-04-30T10:08:09.353Z,23.44
2024-04-30T10:10:39.627Z,23.41
2024-04-30T10:13:12.072Z,23.44
2024-04-30T10:15:42.895Z,23.51
2024-04-30T10:18:22.014Z,23.62
2024-04-30T10:20:52.360Z,23.77
2024-04-30T10:23:43.896Z,23.93
2024-04-30T10:26:12.804Z,24.06
2024-04-30T10:28:43.953Z,24.21
2024-04-30T10:31:13.342Z,24.31
2024-04-30T10:33:47.383Z,24.35
2024-04-30T10:36:16.199Z,24.46
2024-04-30T10:38:46.756Z,24.56
2024-04-30T10:41:14.670Z,24.63
2024-04-30T10:43:45.873Z,24.80
2024-04-30T10:46:20.256Z,25.11
2024-04-30T10:48:55.235Z,25.41
2024-04-30T10:51:27.755Z,25.59
2024-04-30T10:53:58.427Z,25.71
2024-04-30T10:56:28.925Z,25.86
2024-04-30T10:59:00.402Z,25.91
2024-04-30T11:01:30.456Z,25.96
2024-04-30T11:04:13.438Z,25.97
2024-04-30T11:06:43.503Z,25.96
2024-04-30T11:09:15.782Z,26.03
2024-04-30T11:11:54.954Z,26.12
2024-04-30T11:14:26.865Z,26.25
2024-04-30T11:16:55.729Z,26.45
2024-04-30T11:19:28.833Z,26.63
2024-04-30T11:21:56.651Z,26.77
2024-04-30T11:24:27.104Z,26.86
2024-04-30T11:26:54.889Z,26.97
2024-04-30T11:29:34.938Z,27.14
2024-04-30T11:32:09.877Z,27.29
2024-04-30T11:34:40.334Z,27.60
2024-04-30T11:37:10.668Z,27.97
2024-04-30T11:39:41.076Z,28.20
2024-04-30T11:42:18.182Z,28.52
2024-04-30T11:44:54.681Z,28.64
2024-04-30T11:47:22.301Z,28.79
2024-04-30T11:49:55.260Z,28.73
2024-04-30T11:52:22.961Z,28.68
2024-04-30T11:54:53.171Z,28.76
2024-04-30T11:57:20.721Z,28.83
2024-04-30T11:59:54.468Z,28.92
2024-04-30T12:02:22.177Z,29.02
2024-04-30T12:04:55.155Z,29.08
2024-04-30T12:07:22.945Z,29.52
2024-04-30T12:09:53.255Z,30.36
2024-04-30T12:12:20.695Z,30.84
2024-04-30T12:14:51.272Z,30.77
2024-04-30T12:17:19.251Z,30.53
2024-04-30T12:19:49.687Z,30.80
2024-04-30T12:22:20.007Z,31.04
2024-04-30T12:24:50.858Z,31.31
2024-04-30T12:27:18.424Z,31.75
2024-04-30T12:29:50.715Z,32.30
2024-04-30T12:32:19.607Z,32.81
2024-04-30T12:34:50.151Z,33.28
2024-04-30T12:37:20.515Z,33.27
2024-04-30T12:39:53.456Z,33.19
2024-04-30T12:42:26.446Z,33.59
2024-04-30T12:44:54.557Z,33.82
2024-04-30T12:47:24.922Z,34.17
2024-04-30T12:49:54.215Z,34.32
2024-04-30T12:52:27.542Z,34.13
2024-04-30T12:54:55.181Z,33.87
2024-04-30T12:57:25.711Z,33.74
2024-04-30T12:59:53.206Z,34.29
2024-04-30T13:02:23.454Z,35.07
2024-04-30T13:04:51.847Z,35.74
2024-04-30T13:07:21.965Z,36.25
2024-04-30T13:09:52.244Z,36.63
2024-04-30T13:12:22.853Z,36.97
2024-04-30T13:14:50.560Z,37.20
2024-04-30T13:17:20.814Z,37.27
2024-04-30T13:19:48.500Z,37.47
2024-04-30T13:22:18.657Z,37.66
2024-04-30T13:24:46.216Z,37.77
2024-04-30T13:27:19.230Z,38.04
2024-04-30T13:29:46.724Z,38.25
2024-04-30T13:32:16.957Z,38.40
2024-04-30T13:34:44.622Z,38.65
2024-04-30T13:37:14.779Z,38.94
2024-04-30T13:39:42.493Z,39.23
2024-04-30T13:42:12.946Z,39.48
2024-04-30T13:44:44.022Z,39.75
2024-04-30T13:47:15.182Z,40.07
2024-04-30T13:49:43.037Z,40.36
2024-04-30T13:52:13.340Z,40.61
2024-04-30T13:54:40.874Z,40.61
2024-04-30T13:57:10.926Z,40.49
2024-04-30T13:59:38.371Z,40.53
2024-04-30T14:02:14.920Z,40.64
2024-04-30T14:04:42.987Z,40.79
2024-04-30T14:07:13.375Z,41.20
2024-04-30T14:09:40.906Z,41.42
2024-04-30T14:12:13.934Z,41.48
2024-04-30T14:14:43.657Z,41.66
2024-04-30T14:17:19.759Z,41.93
2024-04-30T14:19:47.379Z,41.99
2024-04-30T14:22:18.055Z,42.14
2024-04-30T14:24:45.716Z,42.37
2024-04-30T14:27:16.349Z,42.37
2024-04-30T14:29:45.850Z,42.41
2024-04-30T14:32:18.768Z,42.41
2024-04-30T14:34:46.373Z,42.18
2024-04-30T14:37:16.841Z,41.97
2024-04-30T14:39:44.577Z,42.10
2024-04-30T14:42:17.025Z,42.51
2024-04-30T14:44:44.560Z,42.53
2024-04-30T14:47:15.325Z,41.33
2024-04-30T14:49:45.803Z,40.43
2024-04-30T14:52:18.790Z,40.11
2024-04-30T14:54:46.893Z,40.53
2024-04-30T14:57:17.341Z,41.02
2024-04-30T14:59:44.828Z,41.49
2024-04-30T15:02:19.679Z,41.98
2024-04-30T15:04:50.157Z,42.31
2024-04-30T15:07:20.810Z,41.85
2024-04-30T15:09:55.178Z,41.53
2024-04-30T15:12:25.495Z,41.39
2024-04-30T15:14:53.250Z,40.47
2024-04-30T15:17:26.189Z,39.44
2024-04-30T15:19:56.651Z,38.45
2024-04-30T15:22:27.346Z,37.74
2024-04-30T15:24:55.619Z,37.79
2024-04-30T15:27:28.591Z,38.65
2024-04-30T15:30:00.297Z,39.45
2024-04-30T15:32:30.599Z,40.00
2024-04-30T15:35:00.904Z,39.99
2024-04-30T15:37:31.081Z,39.80
2024-04-30T15:39:58.657Z,40.02
2024-04-30T15:42:28.964Z,39.72
2024-04-30T15:44:56.470Z,39.15
2024-04-30T15:47:27.145Z,38.91
2024-04-30T15:49:55.351Z,38.75
2024-04-30T15:52:28.591Z,38.20
2024-04-30T15:54:57.302Z,37.76
2024-04-30T15:57:27.887Z,37.81
2024-04-30T15:59:55.860Z,38.18
2024-04-30T16:02:25.945Z,39.07
2024-04-30T16:04:54.031Z,39.89
2024-04-30T16:07:24.511Z,40.38
2024-04-30T16:09:55.319Z,41.02
2024-04-30T16:12:27.054Z,41.25
2024-04-30T16:14:55.224Z,41.50
2024-04-30T16:17:25.750Z,41.47
2024-04-30T16:19:53.354Z,41.29
2024-04-30T16:22:23.737Z,41.02
2024-04-30T16:24:54.317Z,40.19
2024-04-30T16:27:25.533Z,39.72
2024-04-30T16:29:52.994Z,39.89
2024-04-30T16:32:24.459Z,40.19
2024-04-30T16:34:52.182Z,40.24
2024-04-30T16:37:24.868Z,40.22
2024-04-30T16:39:56.042Z,40.14
2024-04-30T16:42:30.722Z,39.94
2024-04-30T16:44:58.913Z,39.84
2024-04-30T16:47:31.610Z,39.72
2024-04-30T16:50:02.649Z,39.64
2024-04-30T16:52:35.906Z,39.43
2024-04-30T16:55:09.687Z,39.14
2024-04-30T16:57:39.033Z,38.73
2024-04-30T17:00:13.340Z,38.35
2024-04-30T17:02:40.953Z,37.82
2024-04-30T17:05:12.466Z,37.20
2024-04-30T17:07:46.689Z,36.77
2024-04-30T17:10:19.669Z,36.71
2024-04-30T17:12:48.218Z,36.47
2024-04-30T17:15:18.708Z,35.69
2024-04-30T17:17:46.353Z,35.07
2024-04-30T17:20:17.073Z,34.63
2024-04-30T17:22:44.539Z,34.01
2024-04-30T17:25:15.300Z,33.50
2024-04-30T17:27:45.859Z,32.99
2024-04-30T17:30:18.013Z,32.45
2024-04-30T17:32:45.669Z,32.04
2024-04-30T17:35:18.935Z,31.76
2024-04-30T17:37:47.396Z,31.43
2024-04-30T17:40:17.978Z,31.13
2024-04-30T17:42:50.854Z,30.84
2024-04-30T17:45:20.944Z,30.53
2024-04-30T17:47:48.669Z,30.25
2024-04-30T17:50:19.056Z,29.91
2024-04-30T17:52:46.648Z,29.65
2024-04-30T17:55:17.185Z,29.49
2024-04-30T17:57:47.618Z,29.29
2024-04-30T18:00:18.555Z,29.09
2024-04-30T18:02:46.068Z,28.93
2024-04-30T18:05:16.472Z,28.69
2024-04-30T18:07:44.565Z,28.42
2024-04-30T18:10:16.874Z,28.13
2024-04-30T18:12:49.373Z,27.66
2024-04-30T18:15:19.727Z,27.17
2024-04-30T18:17:47.321Z,26.80
2024-04-30T18:20:18.020Z,26.41
2024-04-30T18:22:45.474Z,26.08
2024-04-30T18:25:16.398Z,25.76
2024-04-30T18:27:46.072Z,25.45
2024-04-30T18:30:19.834Z,25.17
2024-04-30T18:32:47.520Z,24.90
2024-04-30T18:35:18.075Z,24.65
2024-04-30T18:37:45.576Z,24.38
2024-04-30T18:40:16.469Z,24.12
2024-04-30T18:42:43.976Z,23.92
2024-04-30T18:45:14.232Z,23.76
2024-04-30T18:47:45.165Z,23.58
2024-04-30T18:50:16.334Z,23.42
2024-04-30T18:52:43.812Z,23.22
2024-04-30T18:55:14.991Z,23.04
2024-04-30T18:57:42.937Z,22.87
2024-04-30T19:00:16.086Z,22.71
2024-04-30T19:02:47.173Z,22.54
2024-04-30T19:05:19.412Z,22.37
2024-04-30T19:07:47.814Z,22.23
2024-04-30T19:10:18.056Z,22.11
2024-04-30T19:12:46.111Z,22.00
2024-04-30T19:15:16.767Z,21.89
2024-04-30T19:17:47.260Z,21.76
2024-04-30T19:20:18.585Z,21.63
2024-04-30T19:22:46.302Z,21.54
2024-04-30T19:25:16.535Z,21.43
2024-04-30T19:27:44.176Z,21.32
2024-04-30T19:30:15.638Z,21.21
2024-04-30T19:32:43.292Z,21.11
2024-04-30T19:35:16.768Z,20.99
2024-04-30T19:37:44.393Z,20.88
2024-04-30T19:40:15.215Z,20.80
2024-04-30T19:42:44.283Z,20.69
2024-04-30T19:45:15.811Z,20.58
2024-04-30T19:47:43.565Z,20.47
2024-04-30T19:50:16.791Z,20.36
2024-04-30T19:52:44.403Z,20.27
2024-04-30T19:55:15.500Z,20.17
2024-04-30T19:57:43.798Z,20.05
2024-04-30T20:00:15.748Z,19.95
2024-04-30T20:02:43.991Z,19.86
2024-04-30T20:05:17.229Z,19.75
2024-04-30T20:07:44.881Z,19.65
2024-04-30T20:10:15.375Z,19.59
2024-04-30T20:12:43.637Z,19.51
2024-04-30T20:15:13.736Z,19.44
2024-04-30T20:17:41.433Z,19.36
2024-04-30T20:20:12.456Z,19.29
2024-04-30T20:22:45.703Z,19.21
2024-04-30T20:25:16.845Z,19.14
2024-04-30T20:27:44.317Z,19.07
2024-04-30T20:30:15.129Z,18.99
2024-04-30T20:32:43.873Z,18.92
2024-04-30T20:35:13.986Z,18.87
2024-04-30T20:37:44.403Z,18.82
2024-04-30T20:40:15.192Z,18.76
2024-04-30T20:42:43.325Z,18.71
2024-04-30T20:45:13.641Z,18.66
2024-04-30T20:47:41.486Z,18.60
2024-04-30T20:50:12.336Z,18.55
2024-04-30T20:52:42.266Z,18.51
2024-04-30T20:55:16.515Z,18.45
2024-04-30T20:57:45.278Z,18.42
2024-04-30T21:00:17.167Z,18.37
2024-04-30T21:02:46.799Z,18.31
2024-04-30T21:05:17.374Z,18.27
2024-04-30T21:07:45.271Z,18.22
2024-04-30T21:10:18.940Z,18.17
2024-04-30T21:12:46.468Z,18.12
2024-04-30T21:15:16.834Z,18.10
2024-04-30T21:17:47.142Z,18.07
2024-04-30T21:20:20.387Z,18.02
2024-04-30T21:22:48.046Z,17.97
2024-04-30T21:25:20.948Z,17.93
2024-04-30T21:27:48.615Z,17.88
2024-04-30T21:30:19.529Z,17.85
2024-04-30T21:32:47.080Z,17.80
2024-04-30T21:35:17.808Z,17.77
2024-04-30T21:37:47.841Z,17.76
2024-04-30T21:40:20.664Z,17.73
2024-04-30T21:42:48.445Z,17.69
2024-04-30T21:45:18.627Z,17.65
2024-04-30T21:47:46.224Z,17.61
2024-04-30T21:50:16.452Z,17.58
2024-04-30T21:52:44.122Z,17.55
2024-04-30T21:55:15.631Z,17.54
2024-04-30T21:57:46.561Z,17.52
2024-04-30T22:00:17.502Z,17.48
2024-04-30T22:02:45.565Z,17.47
2024-04-30T22:05:16.498Z,17.45
2024-04-30T22:07:46.645Z,17.42
2024-04-30T22:10:14.338Z,17.40
2024-04-30T22:12:45.128Z,17.37
2024-04-30T22:15:15.516Z,17.34
2024-04-30T22:17:46.057Z,17.30
2024-04-30T22:20:14.396Z,17.27
2024-04-30T22:22:45.134Z,17.26
2024-04-30T22:25:13.990Z,17.22
2024-04-30T22:27:44.248Z,17.20
2024-04-30T22:30:20.313Z,17.18
2024-04-30T22:32:49.046Z,17.15
2024-04-30T22:35:19.817Z,17.12
2024-04-30T22:37:47.505Z,17.09
2024-04-30T22:40:17.849Z,17.06
2024-04-30T22:42:45.467Z,17.06
2024-04-30T22:45:22.556Z,17.05
2024-04-30T22:47:50.980Z,17.04
2024-04-30T22:50:21.276Z,17.03
2024-04-30T22:52:48.759Z,17.03
2024-04-30T22:55:19.230Z,17.04
2024-04-30T22:57:47.055Z,17.03
2024-04-30T23:00:21.047Z,17.01
2024-04-30T23:02:48.586Z,17.00
2024-04-30T23:05:19.410Z,16.99
2024-04-30T23:07:47.053Z,16.97
2024-04-30T23:10:17.507Z,16.95
2024-04-30T23:12:44.961Z,16.93
2024-04-30T23:15:19.575Z,16.92
2024-04-30T23:17:49.970Z,16.91
2024-04-30T23:20:20.736Z,16.88
2024-04-30T23:22:48.224Z,16.87
2024-04-30T23:25:18.927Z,16.86
2024-04-30T23:27:49.899Z,16.85
2024-04-30T23:30:20.394Z,16.85
2024-04-30T23:32:50.723Z,16.83
2024-04-30T23:35:18.234Z,16.80
2024-04-30T23:37:48.466Z,16.79
2024-04-30T23:40:16.044Z,16.76
2024-04-30T23:42:46.235Z,16.75
2024-04-30T23:45:14.098Z,16.73
2024-04-30T23:47:47.082Z,16.72
2024-04-30T23:50:17.528Z,16.68
2024-04-30T23:52:47.656Z,16.66
2024-04-30T23:55:15.354Z,16.64
2024-04-30T23:57:45.959Z,16.64
